Aviation Digital Data Service (ADDS)

Output produced by METARs form (0152 UTC 22 June 2018)
found at http://www.aviationweather.gov/adds/metars/
 
EFLP 220120Z AUTO 13009KT 050V190 9999 -RA SCT007 BKN034 BKN060 OVC070 16/15 Q0993
EFLP 220050Z AUTO 13008KT 060V190 9999 -RA BKN005 BKN066 BKN095 16/15 Q0993
EFLP 220020Z AUTO 13008KT 070V190 9999 -RA BKN004 OVC041 16/15 Q0994
EFLP 212350Z AUTO 11009KT 050V150 9000 -RA BKN005 OVC047 15/15 Q0995
EFLP 212320Z AUTO 11006KT 060V180 8000 SHRA FEW005 OVC021 15/14 Q0996
EFLP 212250Z AUTO 11007KT 060V170 9999 -SHRA BKN005 OVC031 15/14 Q0997
EFLP 212220Z AUTO 11006KT 050V180 7000 SHRA BKN005 OVC037 15/14 Q0997
EFLP 212150Z AUTO 11007KT 070V170 9999 -SHRA OVC006 15/14 Q0998
EFLP 212120Z AUTO 11006KT 050V150 9999 OVC006 15/14 Q0999
EFLP 212050Z AUTO 10006KT 060V150 9999 BKN008 15/14 Q0999
EFLP 212020Z AUTO 11004KT 070V150 9999 BKN009 15/13 Q1000
EFLP 211950Z AUTO 10005KT 070V150 9999 BKN011 15/13 Q1001
EFLP 211920Z AUTO 12004KT 090V170 9999 BKN013 15/13 Q1001
EFLP 211850Z AUTO 12004KT 070V170 9999 -RA OVC018 15/13 Q1002
EFLP 211820Z AUTO 14004KT 090V190 9999 OVC015 15/12 Q1002
EFLP 211750Z AUTO 11004KT 060V150 9999 BKN015 BKN121 15/12 Q1002
EFLP 211720Z AUTO 13005KT 080V170 9999 OVC016 15/11 Q1002
EFLP 211650Z AUTO 15005KT 080V190 9999 OVC021 15/12 Q1003
EFLP 211620Z AUTO 14006KT 090V180 9999 FEW020 OVC027 16/11 Q1003
EFLP 211550Z AUTO 14006KT 090V190 9999 FEW022 OVC043 16/11 Q1003
EFLP 211520Z AUTO 13006KT 080V170 9999 FEW028 SCT050 BKN081 17/10 Q1003
EFLP 211450Z AUTO 14006KT 070V210 9999 FEW031 BKN089 17/09 Q1003
EFLP 211350Z AUTO VRB04KT CAVOK 18/08 Q1004
EFLP 211320Z AUTO 15005KT 060V210 CAVOK 18/07 Q1004
EFLP 211250Z AUTO 15006KT 100V230 CAVOK 18/05 Q1004
EFLP 211220Z AUTO 18007KT 120V250 CAVOK 18/04 Q1004
EFLP 211150Z AUTO 19008KT 140V240 CAVOK 19/05 Q1004
EFLP 211120Z AUTO 15006KT 090V220 CAVOK 19/05 Q1004
EFLP 211050Z AUTO 19005KT 090V250 CAVOK 19/05 Q1004
EFLP 211020Z AUTO 21006KT 140V260 CAVOK 18/05 Q1004
EFLP 210950Z AUTO VRB05KT CAVOK 19/04 Q1004
EFLP 210920Z AUTO 20007KT 110V290 CAVOK 19/03 Q1005
EFLP 210850Z AUTO VRB06KT CAVOK 19/02 Q1005
EFLP 210820Z AUTO 21005KT 100V250 CAVOK 17/02 Q1005
EFLP 210750Z AUTO VRB04KT CAVOK 18/01 Q1005
EFLP 210720Z AUTO VRB04KT CAVOK 17/02 Q1005
EFLP 210650Z AUTO VRB03KT CAVOK 16/04 Q1005
EFLP 210620Z 19003KT CAVOK 16/04 Q1006
EFLP 210450Z AUTO 25004KT 210V310 CAVOK 14/05 Q1005
EFLP 210420Z AUTO 24003KT CAVOK 13/06 Q1006
EFLP 210350Z AUTO 23003KT CAVOK 12/06 Q1005
EFLP 210320Z AUTO 24002KT CAVOK 11/05 Q1005
EFLP 210250Z AUTO 23003KT CAVOK 10/05 Q1005
EFLP 210220Z AUTO 23004KT CAVOK 10/04 Q1005
EFLP 210150Z AUTO 22005KT CAVOK 09/04 Q1005
EFLP 210120Z AUTO 25006KT CAVOK 09/04 Q1005
EFLP 210050Z AUTO 23005KT CAVOK 09/04 Q1005
EFLP 210020Z AUTO 23004KT CAVOK 09/05 Q1005
EFLP 202350Z AUTO 23005KT CAVOK 10/05 Q1005
EFLP 202320Z AUTO 24005KT CAVOK 10/04 Q1005
EFLP 202250Z AUTO 23004KT CAVOK 09/06 Q1005
EFLP 202220Z AUTO 22004KT CAVOK 10/07 Q1005
EFLP 202150Z AUTO 22005KT CAVOK 11/08 Q1005
EFLP 202120Z AUTO 22006KT CAVOK 12/08 Q1005
EFLP 202050Z AUTO 23008KT CAVOK 13/08 Q1005
EFLP 202020Z AUTO 22007KT CAVOK 14/07 Q1004
EFLP 201950Z AUTO 22009KT CAVOK 14/07 Q1004
EFLP 201920Z AUTO 22010KT CAVOK 15/07 Q1004
EFLP 201850Z AUTO 22007KT CAVOK 16/07 Q1004
EFLP 201820Z 22011KT CAVOK 17/07 Q1004
EFLP 201750Z 25010KT CAVOK 18/05 Q1004
EFLP 201720Z 24012KT 220V280 CAVOK 19/04 Q1004
EFLP 201650Z 23013KT CAVOK 19/05 Q1004
EFLP 201620Z 25014KT CAVOK 19/05 Q1004
EFLP 201550Z 24015KT 220V290 CAVOK 20/04 Q1004
EFLP 201520Z 25014KT CAVOK 19/05 Q1004
EFLP 201450Z AUTO 26011KT 230V300 CAVOK 19/04 Q1004
EFLP 201420Z AUTO 26011KT 220V310 CAVOK 21/03 Q1004